createdAt,value
2022-08-20T00:02:10.077Z,100.00
2022-08-20T00:04:37.170Z,100.00
2022-08-20T00:07:06.543Z,100.00
2022-08-20T00:09:38.439Z,100.00
2022-08-20T00:12:07.117Z,100.00
2022-08-20T00:14:35.393Z,100.00
2022-08-20T00:17:03.948Z,100.00
2022-08-20T00:19:31.041Z,100.00
2022-08-20T00:21:58.513Z,100.00
2022-08-20T00:24:25.999Z,100.00
2022-08-20T00:26:53.058Z,100.00
2022-08-20T00:29:20.590Z,100.00
2022-08-20T00:31:49.990Z,100.00
2022-08-20T00:34:16.670Z,100.00
2022-08-20T00:36:48.163Z,100.00
2022-08-20T00:39:14.785Z,100.00
2022-08-20T00:41:41.681Z,100.00
2022-08-20T00:44:08.417Z,100.00
2022-08-20T00:46:35.555Z,100.00
2022-08-20T00:49:05.974Z,100.00
2022-08-20T00:51:44.065Z,100.00
2022-08-20T00:54:19.061Z,100.00
2022-08-20T00:56:50.583Z,100.00
2022-08-20T00:59:27.347Z,100.00
2022-08-20T01:01:55.494Z,100.00
2022-08-20T01:04:28.887Z,100.00
2022-08-20T01:07:16.088Z,100.00
2022-08-20T01:09:57.708Z,100.00
2022-08-20T01:12:28.298Z,100.00
2022-08-20T01:14:57.606Z,100.00
2022-08-20T01:17:29.051Z,100.00
2022-08-20T01:20:01.715Z,100.00
2022-08-20T01:23:04.617Z,100.00
2022-08-20T01:25:45.540Z,100.00
2022-08-20T01:28:17.365Z,100.00
2022-08-20T01:30:44.509Z,100.00
2022-08-20T01:33:12.961Z,100.00
2022-08-20T01:35:41.676Z,100.00
2022-08-20T01:38:09.201Z,100.00
2022-08-20T01:40:58.058Z,100.00
2022-08-20T01:43:25.084Z,100.00
2022-08-20T01:45:53.530Z,100.00
2022-08-20T01:48:21.722Z,100.00
2022-08-20T01:51:20.596Z,100.00
2022-08-20T01:53:50.357Z,100.00
2022-08-20T01:56:20.765Z,100.00
2022-08-20T01:58:53.734Z,100.00
2022-08-20T02:01:26.302Z,100.00
2022-08-20T02:03:54.170Z,100.00
2022-08-20T02:06:25.550Z,100.00
2022-08-20T02:08:55.773Z,100.00
2022-08-20T02:11:23.158Z,100.00
2022-08-20T02:13:52.678Z,100.00
2022-08-20T02:16:25.605Z,100.00
2022-08-20T02:18:58.581Z,100.00
2022-08-20T02:21:28.731Z,100.00
2022-08-20T02:23:55.868Z,100.00
2022-08-20T02:26:22.602Z,100.00
2022-08-20T02:28:51.484Z,100.00
2022-08-20T02:31:20.510Z,100.00
2022-08-20T02:34:21.890Z,100.00
2022-08-20T02:36:38.008Z,100.00
2022-08-20T02:39:09.286Z,100.00
2022-08-20T02:41:37.425Z,100.00
2022-08-20T02:44:08.907Z,100.00
2022-08-20T02:46:35.848Z,100.00
2022-08-20T02:49:03.818Z,100.00
2022-08-20T02:51:31.195Z,100.00
2022-08-20T02:53:57.847Z,100.00
2022-08-20T02:56:24.606Z,100.00
2022-08-20T02:58:51.455Z,100.00
2022-08-20T03:01:18.487Z,100.00
2022-08-20T03:03:45.473Z,100.00
2022-08-20T03:06:13.301Z,100.00
2022-08-20T03:08:41.437Z,100.00
2022-08-20T03:11:08.250Z,100.00
2022-08-20T03:13:35.201Z,100.00
2022-08-20T03:16:03.399Z,100.00
2022-08-20T03:18:34.907Z,100.00
2022-08-20T03:21:02.804Z,100.00
2022-08-20T03:23:30.571Z,100.00
2022-08-20T03:25:57.874Z,100.00
2022-08-20T03:28:24.741Z,100.00
2022-08-20T03:30:51.558Z,100.00
2022-08-20T03:33:20.253Z,100.00
2022-08-20T03:35:47.766Z,100.00
2022-08-20T03:38:17.508Z,100.00
2022-08-20T03:40:48.643Z,100.00
2022-08-20T03:43:15.322Z,100.00
2022-08-20T03:45:44.267Z,100.00
2022-08-20T03:48:15.218Z,100.00
2022-08-20T03:50:42.576Z,100.00
2022-08-20T03:53:13.087Z,100.00
2022-08-20T03:55:45.268Z,100.00
2022-08-20T03:58:13.563Z,100.00
2022-08-20T04:00:51.297Z,100.00
2022-08-20T04:03:18.252Z,100.00
2022-08-20T04:05:46.104Z,100.00
2022-08-20T04:08:22.778Z,100.00
2022-08-20T04:10:50.827Z,100.00
2022-08-20T04:13:19.775Z,100.00
2022-08-20T04:15:49.721Z,100.00
2022-08-20T04:18:20.569Z,100.00
2022-08-20T04:20:47.954Z,100.00
2022-08-20T04:23:15.036Z,100.00
2022-08-20T04:25:43.358Z,100.00
2022-08-20T04:28:28.688Z,100.00
2022-08-20T04:30:58.169Z,100.00
2022-08-20T04:33:33.730Z,100.00
2022-08-20T04:36:02.842Z,100.00
2022-08-20T04:38:50.095Z,100.00
2022-08-20T04:41:21.139Z,100.00
2022-08-20T04:43:51.283Z,100.00
2022-08-20T04:46:18.213Z,100.00
2022-08-20T04:48:48.620Z,100.00
2022-08-20T04:51:18.289Z,100.00
2022-08-20T04:53:52.167Z,100.00
2022-08-20T04:56:26.435Z,100.00
2022-08-20T04:58:55.990Z,100.00
2022-08-20T05:01:24.234Z,100.00
2022-08-20T05:03:53.582Z,100.00
2022-08-20T05:06:21.948Z,100.00
2022-08-20T05:08:48.679Z,100.00
2022-08-20T05:11:33.182Z,100.00
2022-08-20T05:14:02.384Z,100.00
2022-08-20T05:16:32.418Z,100.00
2022-08-20T05:18:59.091Z,100.00
2022-08-20T05:21:25.810Z,100.00
2022-08-20T05:23:52.631Z,100.00
2022-08-20T05:26:20.301Z,100.00
2022-08-20T05:28:57.553Z,100.00
2022-08-20T05:31:32.665Z,100.00
2022-08-20T05:34:11.142Z,100.00
2022-08-20T05:36:56.345Z,100.00
2022-08-20T05:39:23.199Z,100.00
2022-08-20T05:41:51.066Z,100.00
2022-08-20T05:44:20.497Z,100.00
2022-08-20T05:46:48.113Z,100.00
2022-08-20T05:49:20.002Z,100.00
2022-08-20T05:51:47.650Z,100.00
2022-08-20T05:54:14.839Z,100.00
2022-08-20T05:56:41.768Z,100.00
2022-08-20T05:59:09.994Z,100.00
2022-08-20T06:01:39.016Z,100.00
2022-08-20T06:04:24.886Z,100.00
2022-08-20T06:06:54.101Z,100.00
2022-08-20T06:09:30.522Z,100.00
2022-08-20T06:12:04.457Z,100.00
2022-08-20T06:14:32.457Z,100.00
2022-08-20T06:17:16.461Z,100.00
2022-08-20T06:19:46.140Z,100.00
2022-08-20T06:22:21.060Z,100.00
2022-08-20T06:24:53.163Z,100.00
2022-08-20T06:27:20.563Z,100.00
2022-08-20T06:29:47.722Z,100.00
2022-08-20T06:32:15.065Z,100.00
2022-08-20T06:34:49.940Z,100.00
2022-08-20T06:37:30.831Z,100.00
2022-08-20T06:40:07.186Z,100.00
2022-08-20T06:42:34.724Z,100.00
2022-08-20T06:45:04.723Z,100.00
2022-08-20T06:47:31.702Z,100.00
2022-08-20T06:49:58.641Z,100.00
2022-08-20T06:52:27.123Z,100.00
2022-08-20T06:55:12.283Z,100.00
2022-08-20T06:57:40.229Z,100.00
2022-08-20T07:00:14.593Z,100.00
2022-08-20T07:02:41.993Z,100.00
2022-08-20T07:05:09.340Z,100.00
2022-08-20T07:07:37.347Z,100.00
2022-08-20T07:10:07.396Z,100.00
2022-08-20T07:12:36.503Z,100.00
2022-08-20T07:15:05.677Z,100.00
2022-08-20T07:17:32.416Z,100.00
2022-08-20T07:19:59.149Z,100.00
2022-08-20T07:22:25.875Z,100.00
2022-08-20T07:24:52.782Z,100.00
2022-08-20T07:27:23.432Z,100.00
2022-08-20T07:30:12.903Z,100.00
2022-08-20T07:32:45.161Z,100.00
2022-08-20T07:35:15.169Z,100.00
2022-08-20T07:37:46.601Z,100.00
2022-08-20T07:40:21.306Z,100.00
2022-08-20T07:42:50.735Z,100.00
2022-08-20T07:45:20.951Z,100.00
2022-08-20T07:47:47.979Z,100.00
2022-08-20T07:50:17.857Z,100.00
2022-08-20T07:52:45.753Z,100.00
2022-08-20T07:55:15.887Z,100.00
2022-08-20T07:57:45.824Z,100.00
2022-08-20T08:00:14.339Z,91.48
2022-08-20T08:02:41.883Z,92.91
2022-08-20T08:05:09.723Z,89.16
2022-08-20T08:07:37.902Z,89.38
2022-08-20T08:10:10.702Z,88.82
2022-08-20T08:12:43.939Z,92.32
2022-08-20T08:15:15.573Z,98.14
2022-08-20T08:17:44.648Z,100.00
2022-08-20T08:20:12.386Z,100.00
2022-08-20T08:22:44.411Z,100.00
2022-08-20T08:25:12.943Z,100.00
2022-08-20T08:27:40.530Z,100.00
2022-08-20T08:30:09.263Z,100.00
2022-08-20T08:33:00.969Z,100.00
2022-08-20T08:35:27.919Z,100.00
2022-08-20T08:37:58.128Z,100.00
2022-08-20T08:40:27.736Z,100.00
2022-08-20T08:42:58.462Z,100.00
2022-08-20T08:45:45.708Z,100.00
2022-08-20T08:48:18.637Z,100.00
2022-08-20T08:50:53.356Z,100.00
2022-08-20T08:53:45.687Z,96.59
2022-08-20T08:56:14.794Z,100.00
2022-08-20T08:58:44.738Z,99.85
2022-08-20T09:01:55.132Z,98.73
2022-08-20T09:04:05.577Z,95.65
2022-08-20T09:06:32.798Z,92.88
2022-08-20T09:09:09.648Z,92.06
2022-08-20T09:12:06.892Z,91.50
2022-08-20T09:14:40.289Z,85.83
2022-08-20T09:17:09.067Z,86.38
2022-08-20T09:19:43.780Z,82.47
2022-08-20T09:22:26.477Z,81.36
2022-08-20T09:24:58.469Z,82.89
2022-08-20T09:27:59.393Z,83.05
2022-08-20T09:30:41.967Z,82.82
2022-08-20T09:33:13.971Z,83.85
2022-08-20T09:35:41.057Z,76.25
2022-08-20T09:38:08.069Z,79.64
2022-08-20T09:40:37.872Z,75.64
2022-08-20T09:43:08.963Z,73.00
2022-08-20T09:45:40.114Z,73.80
2022-08-20T09:48:10.509Z,73.83
2022-08-20T09:50:42.492Z,66.87
2022-08-20T09:53:09.849Z,67.64
2022-08-20T09:55:41.453Z,69.37
2022-08-20T09:58:17.364Z,65.88
2022-08-20T10:00:46.012Z,66.88
2022-08-20T10:03:13.215Z,68.29
2022-08-20T10:05:50.179Z,69.97
2022-08-20T10:08:31.040Z,67.81
2022-08-20T10:10:58.035Z,67.32
2022-08-20T10:13:27.661Z,66.50
2022-08-20T10:15:55.363Z,67.40
2022-08-20T10:18:22.210Z,65.57
2022-08-20T10:20:53.498Z,63.48
2022-08-20T10:23:32.998Z,64.87
2022-08-20T10:26:02.380Z,64.77
2022-08-20T10:28:29.535Z,65.01
2022-08-20T10:31:00.798Z,61.75
2022-08-20T10:33:30.815Z,61.32
2022-08-20T10:36:00.062Z,57.77
2022-08-20T10:38:33.267Z,58.62
2022-08-20T10:41:00.864Z,57.88
2022-08-20T10:43:33.011Z,59.79
2022-08-20T10:46:31.950Z,57.97
2022-08-20T10:49:03.491Z,58.21
2022-08-20T10:51:34.450Z,58.07
2022-08-20T10:54:12.630Z,57.16
2022-08-20T10:56:43.146Z,58.06
2022-08-20T10:59:26.703Z,58.97
2022-08-20T11:01:54.537Z,56.48
2022-08-20T11:05:04.170Z,55.61
2022-08-20T11:07:57.826Z,55.45
2022-08-20T11:10:27.625Z,57.07
2022-08-20T11:12:55.313Z,57.12
2022-08-20T11:15:22.745Z,54.40
2022-08-20T11:17:51.007Z,50.80
2022-08-20T11:20:24.005Z,53.17
2022-08-20T11:22:50.719Z,53.82
2022-08-20T11:25:27.703Z,51.79
2022-08-20T11:27:56.505Z,50.25
2022-08-20T11:30:31.603Z,48.90
2022-08-20T11:33:02.232Z,48.16
2022-08-20T11:35:48.496Z,47.85
2022-08-20T11:41:25.588Z,49.54
2022-08-20T11:44:17.452Z,50.45
2022-08-20T11:46:39.594Z,49.59
2022-08-20T11:49:11.954Z,49.15
2022-08-20T11:51:49.479Z,50.29
2022-08-20T11:54:17.481Z,51.28
2022-08-20T11:56:45.925Z,49.58
2022-08-20T11:59:13.788Z,50.10
2022-08-20T12:01:46.684Z,50.02
2022-08-20T12:04:33.602Z,50.80
2022-08-20T12:07:13.339Z,49.82
2022-08-20T12:09:42.923Z,48.96
2022-08-20T12:12:19.504Z,48.15
2022-08-20T12:14:48.553Z,47.92
2022-08-20T12:17:32.703Z,45.22
2022-08-20T12:20:06.437Z,46.50
2022-08-20T12:22:33.288Z,48.76
2022-08-20T12:24:59.991Z,45.95
2022-08-20T12:27:36.569Z,47.21
2022-08-20T12:30:23.652Z,48.37
2022-08-20T12:32:51.413Z,46.93
2022-08-20T12:35:22.079Z,45.05
2022-08-20T12:37:49.643Z,45.40
2022-08-20T12:40:31.910Z,44.74
2022-08-20T12:43:10.014Z,46.87
2022-08-20T12:45:45.492Z,44.15
2022-08-20T12:48:25.447Z,45.80
2022-08-20T12:50:52.987Z,45.16
2022-08-20T12:53:19.807Z,47.46
2022-08-20T12:55:50.214Z,48.63
2022-08-20T12:58:17.212Z,49.77
2022-08-20T13:00:50.684Z,50.87
2022-08-20T13:03:21.432Z,51.88
2022-08-20T13:05:51.993Z,53.03
2022-08-20T13:08:19.709Z,53.02
2022-08-20T13:10:46.661Z,52.51
2022-08-20T13:13:15.466Z,51.67
2022-08-20T13:15:44.515Z,50.80
2022-08-20T13:18:14.593Z,52.55
2022-08-20T13:20:41.588Z,53.82
2022-08-20T13:23:08.706Z,53.75
2022-08-20T13:25:35.608Z,54.75
2022-08-20T13:28:04.976Z,56.91
2022-08-20T13:30:35.127Z,57.59
2022-08-20T13:33:10.496Z,57.18
2022-08-20T13:35:37.327Z,56.57
2022-08-20T13:38:04.244Z,54.92
2022-08-20T13:40:43.085Z,55.23
2022-08-20T13:43:16.309Z,54.17
2022-08-20T13:45:43.380Z,55.04
2022-08-20T13:48:14.946Z,55.56
2022-08-20T13:50:46.867Z,57.19
2022-08-20T13:53:15.361Z,56.86
2022-08-20T13:55:54.715Z,57.42
2022-08-20T13:58:24.912Z,57.96
2022-08-20T14:00:51.756Z,57.91
2022-08-20T14:03:25.409Z,56.91
2022-08-20T14:05:54.419Z,56.95
2022-08-20T14:08:28.755Z,56.52
2022-08-20T14:10:57.461Z,55.69
2022-08-20T14:13:26.157Z,55.49
2022-08-20T14:15:57.684Z,55.37
2022-08-20T14:18:24.820Z,56.74
2022-08-20T14:20:54.697Z,56.25
2022-08-20T14:23:21.415Z,56.01
2022-08-20T14:25:51.356Z,56.87
2022-08-20T14:28:21.861Z,56.71
2022-08-20T14:30:53.045Z,57.26
2022-08-20T14:33:21.350Z,56.59
2022-08-20T14:35:48.077Z,56.04
2022-08-20T14:38:15.114Z,54.71
2022-08-20T14:40:45.086Z,53.44
2022-08-20T14:43:16.823Z,53.49
2022-08-20T14:45:46.399Z,53.25
2022-08-20T14:48:18.905Z,54.46
2022-08-20T14:50:46.375Z,52.18
2022-08-20T14:53:13.611Z,52.70
2022-08-20T14:55:40.489Z,52.68
2022-08-20T14:58:09.358Z,52.78
2022-08-20T15:00:40.041Z,53.45
2022-08-20T15:03:08.514Z,54.73
2022-08-20T15:05:39.464Z,54.85
2022-08-20T15:08:07.752Z,53.44
2022-08-20T15:10:42.901Z,53.67
2022-08-20T15:13:12.043Z,54.52
2022-08-20T15:15:40.612Z,54.59
2022-08-20T15:18:08.156Z,55.30
2022-08-20T15:20:36.249Z,56.01
2022-08-20T15:23:06.801Z,55.14
2022-08-20T15:25:37.041Z,56.30
2022-08-20T15:28:09.067Z,55.97
2022-08-20T15:30:37.942Z,55.11
2022-08-20T15:33:09.727Z,54.30
2022-08-20T15:35:36.563Z,54.60
2022-08-20T15:38:03.187Z,55.08
2022-08-20T15:40:32.411Z,55.14
2022-08-20T15:43:01.277Z,54.30
2022-08-20T15:45:28.887Z,54.64
2022-08-20T15:48:02.791Z,54.56
2022-08-20T15:50:47.952Z,54.42
2022-08-20T15:53:37.732Z,54.87
2022-08-20T15:56:34.305Z,54.84
2022-08-20T15:59:04.024Z,55.55
2022-08-20T16:01:54.684Z,53.53
2022-08-20T16:04:45.670Z,54.25
2022-08-20T16:07:18.476Z,55.37
2022-08-20T16:10:03.821Z,56.37
2022-08-20T16:12:38.316Z,55.47
2022-08-20T16:15:19.908Z,56.02
2022-08-20T16:18:08.531Z,56.20
2022-08-20T16:20:40.561Z,55.83
2022-08-20T16:23:09.218Z,55.63
2022-08-20T16:25:57.089Z,56.25
2022-08-20T16:28:32.577Z,56.52
2022-08-20T16:31:05.467Z,55.64
2022-08-20T16:34:00.053Z,54.82
2022-08-20T16:36:38.795Z,55.26
2022-08-20T16:39:11.095Z,56.56
2022-08-20T16:41:44.758Z,55.07
2022-08-20T16:44:24.183Z,53.83
2022-08-20T16:47:13.706Z,52.75
2022-08-20T16:49:48.739Z,52.39
2022-08-20T16:52:16.231Z,52.58
2022-08-20T16:54:44.538Z,52.02
2022-08-20T16:57:16.586Z,53.24
2022-08-20T16:59:55.246Z,52.76
2022-08-20T17:02:23.411Z,53.61
2022-08-20T17:05:00.013Z,53.66
2022-08-20T17:07:40.232Z,53.42
2022-08-20T17:10:20.248Z,52.57
2022-08-20T17:12:53.608Z,53.23
2022-08-20T17:15:25.614Z,52.43
2022-08-20T17:17:55.671Z,52.81
2022-08-20T17:20:25.510Z,53.49
2022-08-20T17:23:08.611Z,54.07
2022-08-20T17:25:40.145Z,54.06
2022-08-20T17:28:18.575Z,55.11
2022-08-20T17:30:46.288Z,55.47
2022-08-20T17:33:21.336Z,56.31
2022-08-20T17:35:53.657Z,56.16
2022-08-20T17:38:27.446Z,56.58
2022-08-20T17:41:03.300Z,57.47
2022-08-20T17:43:32.853Z,58.83
2022-08-20T17:46:11.372Z,58.80
2022-08-20T17:48:50.112Z,57.57
2022-08-20T17:51:26.639Z,56.98
2022-08-20T17:54:16.910Z,57.69
2022-08-20T17:56:44.540Z,57.57
2022-08-20T17:59:40.923Z,57.41
2022-08-20T18:02:11.969Z,57.34
2022-08-20T18:04:39.081Z,57.35
2022-08-20T18:07:14.879Z,57.35
2022-08-20T18:09:49.770Z,58.05
2022-08-20T18:12:34.064Z,58.45
2022-08-20T18:15:24.704Z,58.64
2022-08-20T18:18:16.241Z,61.12
2022-08-20T18:21:08.006Z,61.61
2022-08-20T18:23:48.231Z,62.26
2022-08-20T18:26:24.295Z,63.23
2022-08-20T18:29:03.445Z,63.57
2022-08-20T18:31:39.778Z,64.00
2022-08-20T18:34:13.250Z,64.06
2022-08-20T18:36:40.636Z,64.22
2022-08-20T18:39:42.698Z,64.62
2022-08-20T18:42:27.300Z,64.68
2022-08-20T18:44:56.054Z,65.27
2022-08-20T18:47:40.968Z,65.51
2022-08-20T18:50:15.855Z,66.00
2022-08-20T18:53:12.926Z,66.39
2022-08-20T18:55:44.057Z,66.85
2022-08-20T18:58:14.635Z,67.07
2022-08-20T19:00:43.272Z,68.01
2022-08-20T19:03:15.556Z,68.06
2022-08-20T19:05:59.107Z,68.62
2022-08-20T19:08:35.715Z,69.66
2022-08-20T19:11:40.786Z,70.42
2022-08-20T19:14:15.444Z,70.03
2022-08-20T19:16:47.401Z,70.10
2022-08-20T19:19:22.501Z,70.07
2022-08-20T19:21:50.928Z,70.38
2022-08-20T19:24:24.951Z,71.48
2022-08-20T19:27:12.780Z,71.97
2022-08-20T19:29:46.177Z,71.89
2022-08-20T19:32:25.674Z,72.30
2022-08-20T19:35:01.889Z,72.29
2022-08-20T19:37:39.619Z,72.32
2022-08-20T19:40:38.961Z,73.01
2022-08-20T19:43:14.328Z,73.01
2022-08-20T19:45:46.756Z,72.71
2022-08-20T19:48:27.075Z,73.73
2022-08-20T19:51:01.443Z,74.06
2022-08-20T19:53:31.800Z,75.54
2022-08-20T19:56:13.997Z,76.15
2022-08-20T19:58:41.521Z,77.53
2022-08-20T20:01:26.750Z,78.42
2022-08-20T20:04:00.288Z,77.49
2022-08-20T20:06:27.717Z,80.12
2022-08-20T20:09:03.014Z,78.76
2022-08-20T20:11:35.790Z,78.06
2022-08-20T20:14:09.545Z,78.49
2022-08-20T20:16:38.133Z,77.55
2022-08-20T20:19:25.188Z,78.21
2022-08-20T20:22:11.940Z,79.69
2022-08-20T20:24:50.779Z,79.88
2022-08-20T20:27:24.754Z,79.97
2022-08-20T20:30:00.238Z,80.64
2022-08-20T20:32:29.024Z,80.13
2022-08-20T20:34:58.780Z,80.90
2022-08-20T20:37:48.987Z,82.82
2022-08-20T20:40:35.848Z,82.60
2022-08-20T20:43:13.530Z,85.48
2022-08-20T20:45:44.387Z,87.05
2022-08-20T20:48:25.079Z,86.62
2022-08-20T20:50:52.614Z,86.21
2022-08-20T20:53:49.424Z,88.69
2022-08-20T20:56:26.724Z,87.49
2022-08-20T20:58:55.747Z,90.35
2022-08-20T21:01:49.476Z,89.67
2022-08-20T21:04:10.123Z,91.34
2022-08-20T21:06:36.853Z,91.32
2022-08-20T21:09:03.728Z,92.70
2022-08-20T21:11:30.547Z,91.46
2022-08-20T21:13:57.313Z,90.72
2022-08-20T21:16:24.134Z,95.39
2022-08-20T21:18:50.944Z,96.56
2022-08-20T21:21:17.812Z,96.73
2022-08-20T21:23:44.679Z,96.45
2022-08-20T21:26:11.881Z,96.72
2022-08-20T21:28:38.614Z,99.22
2022-08-20T21:31:05.547Z,98.47
2022-08-20T21:33:32.383Z,98.58
2022-08-20T21:35:59.534Z,100.00
2022-08-20T21:38:26.679Z,95.95
2022-08-20T21:40:58.071Z,98.11
2022-08-20T21:43:25.246Z,100.00
2022-08-20T21:45:52.391Z,100.00
2022-08-20T21:48:19.510Z,100.00
2022-08-20T21:50:46.893Z,100.00
2022-08-20T21:53:14.019Z,100.00
2022-08-20T21:55:43.785Z,100.00
2022-08-20T21:58:13.620Z,100.00
2022-08-20T22:00:52.893Z,100.00
2022-08-20T22:03:31.966Z,100.00
2022-08-20T22:06:00.757Z,100.00
2022-08-20T22:08:28.480Z,100.00
2022-08-20T22:10:57.177Z,100.00
2022-08-20T22:13:28.335Z,100.00
2022-08-20T22:15:55.243Z,100.00
2022-08-20T22:18:23.236Z,100.00
2022-08-20T22:20:50.030Z,100.00
2022-08-20T22:23:16.790Z,100.00
2022-08-20T22:26:42.310Z,100.00
2022-08-20T22:29:35.702Z,100.00
2022-08-20T22:32:02.877Z,100.00
2022-08-20T22:34:32.534Z,100.00
2022-08-20T22:37:00.706Z,100.00
2022-08-20T22:39:28.189Z,100.00
2022-08-20T22:41:55.140Z,100.00
2022-08-20T22:44:22.090Z,100.00
2022-08-20T22:46:53.970Z,100.00
2022-08-20T22:49:24.083Z,100.00
2022-08-20T22:51:50.940Z,100.00
2022-08-20T22:54:22.182Z,100.00
2022-08-20T22:56:49.626Z,100.00
2022-08-20T22:59:19.006Z,100.00
2022-08-20T23:01:49.141Z,100.00
2022-08-20T23:04:25.177Z,100.00
2022-08-20T23:06:53.065Z,100.00
2022-08-20T23:09:26.967Z,100.00
2022-08-20T23:11:54.826Z,100.00
2022-08-20T23:14:22.138Z,100.00
2022-08-20T23:16:58.216Z,100.00
2022-08-20T23:19:25.315Z,100.00
2022-08-20T23:21:52.670Z,100.00
2022-08-20T23:24:19.939Z,100.00
2022-08-20T23:26:52.498Z,100.00
2022-08-20T23:29:22.594Z,100.00
2022-08-20T23:32:03.714Z,100.00
2022-08-20T23:34:39.700Z,100.00
2022-08-20T23:37:28.605Z,100.00
2022-08-20T23:39:56.266Z,100.00
2022-08-20T23:42:23.130Z,100.00
2022-08-20T23:44:50.210Z,100.00
2022-08-20T23:47:21.499Z,100.00
2022-08-20T23:49:48.404Z,100.00
2022-08-20T23:52:17.768Z,100.00
2022-08-20T23:54:44.583Z,100.00
2022-08-20T23:57:11.345Z,100.00
2022-08-20T23:59:38.348Z,100.00
